sensor_id;sensor_type;location;lat;lon;timestamp;pressure;altitude;pressure_sealevel;temperature;humidity
16355;BME280;8287;51.644;8.494;2022-08-11T00:01:37;101106.81;;;21.82;51.14
16355;BME280;8287;51.644;8.494;2022-08-11T00:04:11;101107.91;;;21.77;50.93
16355;BME280;8287;51.644;8.494;2022-08-11T00:06:38;101107.03;;;21.73;51.00
16355;BME280;8287;51.644;8.494;2022-08-11T00:09:08;101098.81;;;21.66;51.59
16355;BME280;8287;51.644;8.494;2022-08-11T00:11:37;101108.75;;;21.62;51.56
16355;BME280;8287;51.644;8.494;2022-08-11T00:14:14;101101.00;;;21.61;52.62
16355;BME280;8287;51.644;8.494;2022-08-11T00:16:41;101103.22;;;21.55;52.16
16355;BME280;8287;51.644;8.494;2022-08-11T00:19:12;101103.94;;;21.52;52.41
16355;BME280;8287;51.644;8.494;2022-08-11T00:21:45;101107.78;;;21.51;52.78
16355;BME280;8287;51.644;8.494;2022-08-11T00:24:12;101113.81;;;21.45;51.60
16355;BME280;8287;51.644;8.494;2022-08-11T00:26:39;101106.38;;;21.38;51.95
16355;BME280;8287;51.644;8.494;2022-08-11T00:29:09;101105.91;;;21.33;51.74
16355;BME280;8287;51.644;8.494;2022-08-11T00:31:37;101109.66;;;21.28;52.16
16355;BME280;8287;51.644;8.494;2022-08-11T00:34:10;101104.53;;;21.23;53.18
16355;BME280;8287;51.644;8.494;2022-08-11T00:36:48;101104.47;;;21.20;53.83
16355;BME280;8287;51.644;8.494;2022-08-11T00:39:17;101114.84;;;21.18;53.41
16355;BME280;8287;51.644;8.494;2022-08-11T00:41:54;101108.16;;;21.12;53.09
16355;BME280;8287;51.644;8.494;2022-08-11T00:44:30;101116.22;;;21.08;53.11
16355;BME280;8287;51.644;8.494;2022-08-11T00:47:08;101108.75;;;21.02;53.95
16355;BME280;8287;51.644;8.494;2022-08-11T00:49:45;101117.88;;;20.97;53.66
16355;BME280;8287;51.644;8.494;2022-08-11T00:55:43;101102.97;;;20.84;54.70
16355;BME280;8287;51.644;8.494;2022-08-11T00:58:48;101112.88;;;20.80;54.38
16355;BME280;8287;51.644;8.494;2022-08-11T01:01:33;101110.47;;;20.75;54.38
16355;BME280;8287;51.644;8.494;2022-08-11T01:04:22;101110.41;;;20.72;54.61
16355;BME280;8287;51.644;8.494;2022-08-11T01:07:19;101101.03;;;20.66;54.70
16355;BME280;8287;51.644;8.494;2022-08-11T01:10:02;101103.38;;;20.67;54.50
16355;BME280;8287;51.644;8.494;2022-08-11T01:12:43;101105.56;;;20.62;55.24
16355;BME280;8287;51.644;8.494;2022-08-11T01:15:37;101102.81;;;20.58;55.17
16355;BME280;8287;51.644;8.494;2022-08-11T01:18:46;101099.22;;;20.54;55.50
16355;BME280;8287;51.644;8.494;2022-08-11T01:24:46;101101.34;;;20.45;56.60
16355;BME280;8287;51.644;8.494;2022-08-11T01:27:38;101096.31;;;20.44;56.55
16355;BME280;8287;51.644;8.494;2022-08-11T01:30:42;101096.66;;;20.42;56.17
16355;BME280;8287;51.644;8.494;2022-08-11T01:34:13;101102.31;;;20.38;56.80
16355;BME280;8287;51.644;8.494;2022-08-11T01:37:29;101104.56;;;20.36;57.14
16355;BME280;8287;51.644;8.494;2022-08-11T01:40:19;101106.41;;;20.32;56.50
16355;BME280;8287;51.644;8.494;2022-08-11T01:43:08;101099.03;;;20.29;56.35
16355;BME280;8287;51.644;8.494;2022-08-11T01:45:58;101101.28;;;20.27;56.05
16355;BME280;8287;51.644;8.494;2022-08-11T01:48:40;101099.22;;;20.20;56.95
16355;BME280;8287;51.644;8.494;2022-08-11T01:51:16;101102.59;;;20.17;56.73
16355;BME280;8287;51.644;8.494;2022-08-11T01:53:59;101107.22;;;20.17;57.22
16355;BME280;8287;51.644;8.494;2022-08-11T01:56:37;101104.06;;;20.15;56.60
16355;BME280;8287;51.644;8.494;2022-08-11T01:59:13;101109.91;;;20.17;56.62
16355;BME280;8287;51.644;8.494;2022-08-11T02:01:51;101107.47;;;20.12;56.12
16355;BME280;8287;51.644;8.494;2022-08-11T02:04:32;101103.47;;;20.06;56.15
16355;BME280;8287;51.644;8.494;2022-08-11T02:07:07;101112.94;;;20.00;54.90
16355;BME280;8287;51.644;8.494;2022-08-11T02:09:48;101105.53;;;19.97;55.96
16355;BME280;8287;51.644;8.494;2022-08-11T02:12:27;101114.03;;;19.99;56.09
16355;BME280;8287;51.644;8.494;2022-08-11T02:15:08;101106.84;;;20.03;56.55
16355;BME280;8287;51.644;8.494;2022-08-11T02:17:48;101112.47;;;19.98;56.75
16355;BME280;8287;51.644;8.494;2022-08-11T02:20:19;101118.56;;;19.95;55.91
16355;BME280;8287;51.644;8.494;2022-08-11T02:23:16;101109.63;;;19.91;54.57
16355;BME280;8287;51.644;8.494;2022-08-11T02:26:09;101116.38;;;19.85;54.50
16355;BME280;8287;51.644;8.494;2022-08-11T02:28:50;101113.19;;;19.79;55.52
16355;BME280;8287;51.644;8.494;2022-08-11T02:31:26;101110.81;;;19.78;56.84
16355;BME280;8287;51.644;8.494;2022-08-11T02:34:17;101108.75;;;19.71;56.40
16355;BME280;8287;51.644;8.494;2022-08-11T02:36:51;101111.44;;;19.71;57.12
16355;BME280;8287;51.644;8.494;2022-08-11T02:39:22;101106.81;;;19.72;56.97
16355;BME280;8287;51.644;8.494;2022-08-11T02:42:04;101101.81;;;19.70;57.09
16355;BME280;8287;51.644;8.494;2022-08-11T02:44:59;101101.25;;;19.65;56.55
16355;BME280;8287;51.644;8.494;2022-08-11T02:47:35;101103.94;;;19.65;56.68
16355;BME280;8287;51.644;8.494;2022-08-11T02:50:11;101105.44;;;19.62;56.43
16355;BME280;8287;51.644;8.494;2022-08-11T02:52:42;101110.25;;;19.57;56.60
16355;BME280;8287;51.644;8.494;2022-08-11T02:55:17;101106.31;;;19.39;56.76
16355;BME280;8287;51.644;8.494;2022-08-11T02:57:51;101106.22;;;19.35;57.04
16355;BME280;8287;51.644;8.494;2022-08-11T03:00:20;101110.66;;;19.28;57.14
16355;BME280;8287;51.644;8.494;2022-08-11T03:02:59;101108.97;;;19.23;56.91
16355;BME280;8287;51.644;8.494;2022-08-11T03:05:36;101106.63;;;19.22;57.04
16355;BME280;8287;51.644;8.494;2022-08-11T03:08:17;101106.59;;;19.34;57.41
16355;BME280;8287;51.644;8.494;2022-08-11T03:10:59;101111.69;;;19.39;56.01
16355;BME280;8287;51.644;8.494;2022-08-11T03:13:57;101114.84;;;19.41;57.52
16355;BME280;8287;51.644;8.494;2022-08-11T03:16:50;101110.56;;;19.40;56.58
16355;BME280;8287;51.644;8.494;2022-08-11T03:19:24;101109.72;;;19.36;56.64
16355;BME280;8287;51.644;8.494;2022-08-11T03:22:01;101115.41;;;19.34;57.15
16355;BME280;8287;51.644;8.494;2022-08-11T03:24:35;101116.00;;;19.28;57.00
16355;BME280;8287;51.644;8.494;2022-08-11T03:27:08;101119.84;;;19.27;57.38
16355;BME280;8287;51.644;8.494;2022-08-11T03:29:41;101111.34;;;19.25;57.68
16355;BME280;8287;51.644;8.494;2022-08-11T03:32:20;101107.84;;;19.24;58.11
16355;BME280;8287;51.644;8.494;2022-08-11T03:34:47;101118.16;;;19.22;57.79
16355;BME280;8287;51.644;8.494;2022-08-11T03:37:29;101116.47;;;19.18;58.26
16355;BME280;8287;51.644;8.494;2022-08-11T03:40:29;101113.16;;;19.09;57.58
16355;BME280;8287;51.644;8.494;2022-08-11T03:43:27;101115.38;;;19.07;57.84
16355;BME280;8287;51.644;8.494;2022-08-11T03:46:18;101116.75;;;19.01;57.93
16355;BME280;8287;51.644;8.494;2022-08-11T03:48:53;101109.47;;;19.01;58.34
16355;BME280;8287;51.644;8.494;2022-08-11T03:51:26;101115.31;;;19.03;57.92
16355;BME280;8287;51.644;8.494;2022-08-11T03:54:02;101108.34;;;19.02;58.28
16355;BME280;8287;51.644;8.494;2022-08-11T04:00:10;101112.16;;;19.01;58.68
16355;BME280;8287;51.644;8.494;2022-08-11T04:06:11;101112.06;;;18.98;58.66
16355;BME280;8287;51.644;8.494;2022-08-11T04:09:01;101112.75;;;18.95;58.41
16355;BME280;8287;51.644;8.494;2022-08-11T04:11:52;101118.34;;;18.90;58.23
16355;BME280;8287;51.644;8.494;2022-08-11T04:21:01;101098.13;;;18.80;57.88
16355;BME280;8287;51.644;8.494;2022-08-11T04:23:54;101106.50;;;18.91;57.87
16355;BME280;8287;51.644;8.494;2022-08-11T04:29:42;101106.84;;;18.89;56.69
16355;BME280;8287;51.644;8.494;2022-08-11T04:32:34;101099.47;;;18.86;57.35
16355;BME280;8287;51.644;8.494;2022-08-11T04:35:12;101109.41;;;18.86;57.04
16355;BME280;8287;51.644;8.494;2022-08-11T04:47:21;101118.97;;;18.71;59.24
16355;BME280;8287;51.644;8.494;2022-08-11T04:50:21;101118.75;;;18.64;59.05
16355;BME280;8287;51.644;8.494;2022-08-11T04:53:21;101118.28;;;18.74;59.09
16355;BME280;8287;51.644;8.494;2022-08-11T04:56:17;101122.97;;;18.77;58.34
16355;BME280;8287;51.644;8.494;2022-08-11T04:59:24;101119.28;;;18.82;58.56
16355;BME280;8287;51.644;8.494;2022-08-11T05:02:57;101116.59;;;18.82;58.59
16355;BME280;8287;51.644;8.494;2022-08-11T05:05:35;101116.59;;;18.82;58.78
16355;BME280;8287;51.644;8.494;2022-08-11T05:08:48;101115.66;;;18.90;58.46
16355;BME280;8287;51.644;8.494;2022-08-11T05:11:33;101116.34;;;18.99;57.96
16355;BME280;8287;51.644;8.494;2022-08-11T05:14:26;101115.59;;;19.14;57.86
16355;BME280;8287;51.644;8.494;2022-08-11T05:17:14;101117.75;;;19.20;57.53
16355;BME280;8287;51.644;8.494;2022-08-11T05:20:00;101123.47;;;19.34;57.57
16355;BME280;8287;51.644;8.494;2022-08-11T05:22:47;101121.88;;;19.45;56.79
16355;BME280;8287;51.644;8.494;2022-08-11T05:25:34;101112.28;;;19.60;57.41
16355;BME280;8287;51.644;8.494;2022-08-11T05:28:29;101114.78;;;19.53;56.75
16355;BME280;8287;51.644;8.494;2022-08-11T05:31:15;101126.25;;;19.65;56.44
16355;BME280;8287;51.644;8.494;2022-08-11T05:34:08;101114.38;;;19.82;55.87
16355;BME280;8287;51.644;8.494;2022-08-11T05:37:00;101115.69;;;19.88;56.75
16355;BME280;8287;51.644;8.494;2022-08-11T05:39:32;101115.88;;;19.95;56.44
16355;BME280;8287;51.644;8.494;2022-08-11T05:42:20;101112.56;;;20.01;56.08
16355;BME280;8287;51.644;8.494;2022-08-11T05:45:11;101123.19;;;20.10;56.42
16355;BME280;8287;51.644;8.494;2022-08-11T05:47:56;101121.78;;;20.16;56.34
16355;BME280;8287;51.644;8.494;2022-08-11T05:50:41;101122.91;;;20.15;56.42
16355;BME280;8287;51.644;8.494;2022-08-11T05:53:27;101120.66;;;20.17;56.56
16355;BME280;8287;51.644;8.494;2022-08-11T05:56:12;101122.84;;;20.27;56.71
16355;BME280;8287;51.644;8.494;2022-08-11T05:58:46;101124.28;;;20.39;56.66
16355;BME280;8287;51.644;8.494;2022-08-11T06:01:23;101121.06;;;20.49;56.81
16355;BME280;8287;51.644;8.494;2022-08-11T06:03:52;101107.13;;;20.63;56.21
16355;BME280;8287;51.644;8.494;2022-08-11T06:06:38;101108.41;;;20.69;56.63
16355;BME280;8287;51.644;8.494;2022-08-11T06:09:07;101115.31;;;20.85;56.18
16355;BME280;8287;51.644;8.494;2022-08-11T06:11:40;101113.38;;;21.01;56.44
16355;BME280;8287;51.644;8.494;2022-08-11T06:14:09;101118.34;;;21.18;55.63
16355;BME280;8287;51.644;8.494;2022-08-11T06:16:36;101116.19;;;21.27;56.01
16355;BME280;8287;51.644;8.494;2022-08-11T06:19:04;101107.59;;;21.41;55.89
16355;BME280;8287;51.644;8.494;2022-08-11T06:21:32;101112.47;;;21.54;56.15
16355;BME280;8287;51.644;8.494;2022-08-11T06:24:03;101113.16;;;21.70;55.91
16355;BME280;8287;51.644;8.494;2022-08-11T06:26:31;101110.66;;;21.81;55.95
16355;BME280;8287;51.644;8.494;2022-08-11T06:28:59;101110.78;;;21.88;56.20
16355;BME280;8287;51.644;8.494;2022-08-11T06:31:27;101102.91;;;22.02;56.12
16355;BME280;8287;51.644;8.494;2022-08-11T06:34:01;101107.75;;;22.15;55.64
16355;BME280;8287;51.644;8.494;2022-08-11T06:36:37;101108.75;;;22.30;56.10
16355;BME280;8287;51.644;8.494;2022-08-11T06:39:20;101107.44;;;22.43;55.55
16355;BME280;8287;51.644;8.494;2022-08-11T06:41:52;101109.03;;;22.47;55.29
16355;BME280;8287;51.644;8.494;2022-08-11T06:44:26;101100.72;;;22.59;52.62
16355;BME280;8287;51.644;8.494;2022-08-11T06:46:55;101105.31;;;22.85;52.18
16355;BME280;8287;51.644;8.494;2022-08-11T06:49:36;101096.22;;;23.00;52.76
16355;BME280;8287;51.644;8.494;2022-08-11T06:52:28;101098.66;;;23.12;51.59
16355;BME280;8287;51.644;8.494;2022-08-11T06:54:58;101104.31;;;23.29;50.90
16355;BME280;8287;51.644;8.494;2022-08-11T06:57:32;101105.63;;;23.46;50.55
16355;BME280;8287;51.644;8.494;2022-08-11T07:00:17;101102.78;;;23.68;49.72
16355;BME280;8287;51.644;8.494;2022-08-11T07:02:59;101102.09;;;23.78;49.97
16355;BME280;8287;51.644;8.494;2022-08-11T07:05:39;101097.59;;;23.89;49.58
16355;BME280;8287;51.644;8.494;2022-08-11T07:14:37;101097.16;;;24.37;47.05
16355;BME280;8287;51.644;8.494;2022-08-11T07:19:53;101103.19;;;24.67;47.91
16355;BME280;8287;51.644;8.494;2022-08-11T07:22:39;101094.72;;;24.83;48.49
16355;BME280;8287;51.644;8.494;2022-08-11T07:25:27;101094.41;;;24.95;47.46
16355;BME280;8287;51.644;8.494;2022-08-11T07:28:19;101096.78;;;25.14;47.18
16355;BME280;8287;51.644;8.494;2022-08-11T07:31:08;101096.09;;;25.27;47.20
16355;BME280;8287;51.644;8.494;2022-08-11T07:33:42;101098.44;;;25.43;46.49
16355;BME280;8287;51.644;8.494;2022-08-11T07:36:10;101096.13;;;25.45;45.88
16355;BME280;8287;51.644;8.494;2022-08-11T07:38:40;101098.47;;;25.64;46.28
16355;BME280;8287;51.644;8.494;2022-08-11T07:41:11;101096.94;;;25.84;46.50
16355;BME280;8287;51.644;8.494;2022-08-11T07:43:39;101093.09;;;25.99;47.13
16355;BME280;8287;51.644;8.494;2022-08-11T07:46:09;101094.25;;;26.15;44.55
16355;BME280;8287;51.644;8.494;2022-08-11T07:48:54;101096.16;;;26.32;43.76
16355;BME280;8287;51.644;8.494;2022-08-11T07:51:42;101094.16;;;26.61;44.12
16355;BME280;8287;51.644;8.494;2022-08-11T07:54:27;101094.50;;;26.77;43.36
16355;BME280;8287;51.644;8.494;2022-08-11T07:56:54;101101.47;;;26.81;40.99
16355;BME280;8287;51.644;8.494;2022-08-11T07:59:22;101095.22;;;26.95;41.81
16355;BME280;8287;51.644;8.494;2022-08-11T08:02:08;101096.31;;;27.18;42.20
16355;BME280;8287;51.644;8.494;2022-08-11T08:04:54;101090.34;;;27.37;39.91
16355;BME280;8287;51.644;8.494;2022-08-11T08:07:39;101095.72;;;27.48;40.13
16355;BME280;8287;51.644;8.494;2022-08-11T08:10:23;101095.69;;;27.55;39.99
16355;BME280;8287;51.644;8.494;2022-08-11T08:13:08;101094.03;;;27.68;38.34
16355;BME280;8287;51.644;8.494;2022-08-11T08:15:53;101100.91;;;27.86;39.78
16355;BME280;8287;51.644;8.494;2022-08-11T08:18:39;101105.72;;;28.15;39.43
16355;BME280;8287;51.644;8.494;2022-08-11T08:21:07;101097.84;;;28.24;39.06
16355;BME280;8287;51.644;8.494;2022-08-11T08:23:38;101092.59;;;28.47;37.35
16355;BME280;8287;51.644;8.494;2022-08-11T08:26:06;101096.72;;;28.62;36.92
16355;BME280;8287;51.644;8.494;2022-08-11T08:28:55;101099.53;;;28.52;36.63
16355;BME280;8287;51.644;8.494;2022-08-11T08:31:42;101097.00;;;28.71;37.29
16355;BME280;8287;51.644;8.494;2022-08-11T08:34:11;101089.03;;;28.84;37.17
16355;BME280;8287;51.644;8.494;2022-08-11T08:36:41;101097.25;;;28.80;35.10
16355;BME280;8287;51.644;8.494;2022-08-11T08:39:08;101087.97;;;28.74;36.14
16355;BME280;8287;51.644;8.494;2022-08-11T08:41:36;101091.66;;;28.94;35.74
16355;BME280;8287;51.644;8.494;2022-08-11T08:44:07;101090.47;;;28.95;35.29
16355;BME280;8287;51.644;8.494;2022-08-11T08:46:36;101088.75;;;29.08;35.96
16355;BME280;8287;51.644;8.494;2022-08-11T08:49:07;101085.00;;;29.25;36.03
16355;BME280;8287;51.644;8.494;2022-08-11T08:51:37;101083.50;;;29.47;35.74
16355;BME280;8287;51.644;8.494;2022-08-11T08:54:08;101087.47;;;29.43;34.38
16355;BME280;8287;51.644;8.494;2022-08-11T08:56:38;101086.63;;;29.46;32.59
16355;BME280;8287;51.644;8.494;2022-08-11T08:59:06;101083.25;;;29.65;33.26
16355;BME280;8287;51.644;8.494;2022-08-11T09:01:36;101079.88;;;29.57;33.64
16355;BME280;8287;51.644;8.494;2022-08-11T09:04:07;101081.34;;;29.62;31.55
16355;BME280;8287;51.644;8.494;2022-08-11T09:06:37;101077.84;;;29.61;31.63
16355;BME280;8287;51.644;8.494;2022-08-11T09:09:07;101085.03;;;29.48;32.07
16355;BME280;8287;51.644;8.494;2022-08-11T09:11:37;101077.78;;;29.38;32.17
16355;BME280;8287;51.644;8.494;2022-08-11T09:14:19;101072.94;;;29.49;32.16
16355;BME280;8287;51.644;8.494;2022-08-11T09:16:47;101073.94;;;29.85;32.22
16355;BME280;8287;51.644;8.494;2022-08-11T09:19:16;101074.38;;;30.03;32.35
16355;BME280;8287;51.644;8.494;2022-08-11T09:21:46;101069.69;;;30.07;32.00
16355;BME280;8287;51.644;8.494;2022-08-11T09:24:36;101068.91;;;30.07;31.43
16355;BME280;8287;51.644;8.494;2022-08-11T09:27:21;101068.59;;;30.24;31.16
16355;BME280;8287;51.644;8.494;2022-08-11T09:29:49;101067.38;;;30.25;29.51
16355;BME280;8287;51.644;8.494;2022-08-11T09:32:18;101065.66;;;29.89;30.46
16355;BME280;8287;51.644;8.494;2022-08-11T09:34:46;101061.34;;;30.14;30.40
16355;BME280;8287;51.644;8.494;2022-08-11T09:37:14;101070.13;;;30.02;31.38
16355;BME280;8287;51.644;8.494;2022-08-11T09:39:58;101074.19;;;29.71;30.35
16355;BME280;8287;51.644;8.494;2022-08-11T09:42:43;101065.00;;;30.04;30.91
16355;BME280;8287;51.644;8.494;2022-08-11T09:45:30;101067.13;;;30.39;30.35
16355;BME280;8287;51.644;8.494;2022-08-11T09:47:57;101059.75;;;30.56;29.92
16355;BME280;8287;51.644;8.494;2022-08-11T09:50:29;101056.50;;;30.64;30.40
16355;BME280;8287;51.644;8.494;2022-08-11T09:52:58;101055.31;;;30.65;31.12
16355;BME280;8287;51.644;8.494;2022-08-11T09:55:26;101054.50;;;30.84;29.99
16355;BME280;8287;51.644;8.494;2022-08-11T09:57:52;101057.81;;;31.11;28.96
16355;BME280;8287;51.644;8.494;2022-08-11T10:00:37;101061.75;;;31.10;29.55
16355;BME280;8287;51.644;8.494;2022-08-11T10:03:07;101058.78;;;30.66;28.43
16355;BME280;8287;51.644;8.494;2022-08-11T10:05:36;101054.84;;;30.28;28.87
16355;BME280;8287;51.644;8.494;2022-08-11T10:08:25;101061.34;;;30.14;29.42
16355;BME280;8287;51.644;8.494;2022-08-11T10:10:53;101046.06;;;30.36;30.25
16355;BME280;8287;51.644;8.494;2022-08-11T10:13:21;101044.88;;;30.57;30.04
16355;BME280;8287;51.644;8.494;2022-08-11T10:15:53;101057.91;;;30.72;29.33
16355;BME280;8287;51.644;8.494;2022-08-11T10:18:29;101041.25;;;30.63;28.61
16355;BME280;8287;51.644;8.494;2022-08-11T10:21:21;101044.69;;;30.87;30.08
16355;BME280;8287;51.644;8.494;2022-08-11T10:23:51;101031.59;;;30.94;29.13
16355;BME280;8287;51.644;8.494;2022-08-11T10:26:32;101036.91;;;31.01;29.28
16355;BME280;8287;51.644;8.494;2022-08-11T10:29:21;101046.53;;;31.09;30.12
16355;BME280;8287;51.644;8.494;2022-08-11T10:32:07;101040.91;;;30.61;28.71
16355;BME280;8287;51.644;8.494;2022-08-11T10:34:53;101033.59;;;30.74;28.13
16355;BME280;8287;51.644;8.494;2022-08-11T10:37:22;101029.38;;;30.50;29.47
16355;BME280;8287;51.644;8.494;2022-08-11T10:39:51;101024.72;;;30.86;28.76
16355;BME280;8287;51.644;8.494;2022-08-11T10:42:21;101029.75;;;30.72;27.95
16355;BME280;8287;51.644;8.494;2022-08-11T10:45:07;101026.63;;;31.05;28.26
16355;BME280;8287;51.644;8.494;2022-08-11T10:47:56;101024.81;;;30.83;28.22
16355;BME280;8287;51.644;8.494;2022-08-11T10:50:22;101014.34;;;31.13;29.85
16355;BME280;8287;51.644;8.494;2022-08-11T10:53:08;101024.94;;;31.11;27.35
16355;BME280;8287;51.644;8.494;2022-08-11T10:55:55;101013.47;;;31.00;28.66
16355;BME280;8287;51.644;8.494;2022-08-11T10:58:40;101017.25;;;30.71;27.50
16355;BME280;8287;51.644;8.494;2022-08-11T11:01:21;101013.94;;;30.79;28.18
16355;BME280;8287;51.644;8.494;2022-08-11T11:03:50;101006.38;;;31.03;27.64
16355;BME280;8287;51.644;8.494;2022-08-11T11:06:22;101009.31;;;31.12;27.83
16355;BME280;8287;51.644;8.494;2022-08-11T11:08:56;101002.66;;;31.29;27.60
16355;BME280;8287;51.644;8.494;2022-08-11T11:11:28;101007.78;;;31.43;27.87
16355;BME280;8287;51.644;8.494;2022-08-11T11:14:11;101001.97;;;31.57;28.36
16355;BME280;8287;51.644;8.494;2022-08-11T11:16:58;101004.44;;;31.83;28.11
16355;BME280;8287;51.644;8.494;2022-08-11T11:19:43;101008.22;;;31.57;26.49
16355;BME280;8287;51.644;8.494;2022-08-11T11:22:12;100998.56;;;31.53;26.73
16355;BME280;8287;51.644;8.494;2022-08-11T11:25:03;100997.06;;;31.80;27.92
16355;BME280;8287;51.644;8.494;2022-08-11T11:27:43;100990.19;;;31.88;27.04
16355;BME280;8287;51.644;8.494;2022-08-11T11:30:14;100984.81;;;32.13;28.64
16355;BME280;8287;51.644;8.494;2022-08-11T11:32:47;100986.06;;;32.24;27.07
16355;BME280;8287;51.644;8.494;2022-08-11T11:35:36;100984.03;;;32.41;26.39
16355;BME280;8287;51.644;8.494;2022-08-11T11:38:09;100983.19;;;32.56;26.14
16355;BME280;8287;51.644;8.494;2022-08-11T11:40:37;100987.13;;;32.43;25.81
16355;BME280;8287;51.644;8.494;2022-08-11T11:43:06;100989.41;;;32.32;26.76
16355;BME280;8287;51.644;8.494;2022-08-11T11:45:33;100983.47;;;32.05;26.34
16355;BME280;8287;51.644;8.494;2022-08-11T11:48:00;100980.09;;;31.85;26.89
16355;BME280;8287;51.644;8.494;2022-08-11T11:50:28;100979.19;;;32.32;27.51
16355;BME280;8287;51.644;8.494;2022-08-11T11:52:58;100977.97;;;32.33;26.23
16355;BME280;8287;51.644;8.494;2022-08-11T11:55:26;100971.09;;;32.54;26.95
16355;BME280;8287;51.644;8.494;2022-08-11T11:57:53;100963.09;;;33.09;26.55
16355;BME280;8287;51.644;8.494;2022-08-11T12:00:40;100965.84;;;33.34;26.56
16355;BME280;8287;51.644;8.494;2022-08-11T12:03:26;100954.69;;;33.50;26.52
16355;BME280;8287;51.644;8.494;2022-08-11T12:05:54;100959.81;;;33.27;25.49
16355;BME280;8287;51.644;8.494;2022-08-11T12:08:21;100952.09;;;33.34;25.97
16355;BME280;8287;51.644;8.494;2022-08-11T12:10:51;100945.72;;;33.71;25.67
16355;BME280;8287;51.644;8.494;2022-08-11T12:13:41;100951.44;;;32.43;25.17
16355;BME280;8287;51.644;8.494;2022-08-11T12:16:09;100957.34;;;32.41;25.94
16355;BME280;8287;51.644;8.494;2022-08-11T12:18:38;100944.78;;;33.06;25.86
16355;BME280;8287;51.644;8.494;2022-08-11T12:21:06;100953.13;;;33.28;24.98
16355;BME280;8287;51.644;8.494;2022-08-11T12:23:34;100940.94;;;32.79;25.20
16355;BME280;8287;51.644;8.494;2022-08-11T12:26:21;100937.53;;;33.00;26.22
16355;BME280;8287;51.644;8.494;2022-08-11T12:29:07;100931.22;;;33.37;25.89
16355;BME280;8287;51.644;8.494;2022-08-11T12:31:38;100939.09;;;33.47;24.73
16355;BME280;8287;51.644;8.494;2022-08-11T12:34:07;100927.56;;;33.86;25.98
16355;BME280;8287;51.644;8.494;2022-08-11T12:36:36;100923.69;;;34.27;25.75
16355;BME280;8287;51.644;8.494;2022-08-11T12:39:05;100926.13;;;33.82;23.27
16355;BME280;8287;51.644;8.494;2022-08-11T12:41:33;100925.78;;;32.99;25.04
16355;BME280;8287;51.644;8.494;2022-08-11T12:44:28;100915.16;;;33.35;25.62
16355;BME280;8287;51.644;8.494;2022-08-11T12:47:16;100924.50;;;33.38;26.17
16355;BME280;8287;51.644;8.494;2022-08-11T12:49:46;100921.25;;;33.05;24.70
16355;BME280;8287;51.644;8.494;2022-08-11T12:52:34;100916.78;;;32.99;25.22
16355;BME280;8287;51.644;8.494;2022-08-11T12:55:08;100913.66;;;33.09;25.61
16355;BME280;8287;51.644;8.494;2022-08-11T12:57:38;100911.47;;;33.85;25.81
16355;BME280;8287;51.644;8.494;2022-08-11T13:00:25;100901.50;;;34.00;25.81
16355;BME280;8287;51.644;8.494;2022-08-11T13:03:12;100899.16;;;34.20;24.33
16355;BME280;8287;51.644;8.494;2022-08-11T13:05:58;100904.03;;;34.37;24.29
16355;BME280;8287;51.644;8.494;2022-08-11T13:08:27;100896.31;;;34.63;26.06
16355;BME280;8287;51.644;8.494;2022-08-11T13:10:58;100899.47;;;34.22;26.06
16355;BME280;8287;51.644;8.494;2022-08-11T13:13:46;100889.69;;;34.91;24.83
16355;BME280;8287;51.644;8.494;2022-08-11T13:16:14;100887.25;;;34.53;24.89
16355;BME280;8287;51.644;8.494;2022-08-11T13:18:44;100879.91;;;35.08;24.33
16355;BME280;8287;51.644;8.494;2022-08-11T13:21:12;100889.22;;;34.83;23.99
16355;BME280;8287;51.644;8.494;2022-08-11T13:23:40;100875.91;;;34.82;23.86
16355;BME280;8287;51.644;8.494;2022-08-11T13:26:07;100877.69;;;34.36;24.25
16355;BME280;8287;51.644;8.494;2022-08-11T13:28:34;100877.28;;;34.47;24.59
16355;BME280;8287;51.644;8.494;2022-08-11T13:31:02;100875.47;;;35.01;25.01
16355;BME280;8287;51.644;8.494;2022-08-11T13:33:40;100870.78;;;35.38;24.64
16355;BME280;8287;51.644;8.494;2022-08-11T13:36:09;100867.59;;;34.33;22.61
16355;BME280;8287;51.644;8.494;2022-08-11T13:38:36;100865.25;;;34.23;23.84
16355;BME280;8287;51.644;8.494;2022-08-11T13:41:06;100859.06;;;34.80;22.95
16355;BME280;8287;51.644;8.494;2022-08-11T13:43:53;100864.19;;;34.60;23.17
16355;BME280;8287;51.644;8.494;2022-08-11T13:46:21;100859.31;;;35.21;22.64
16355;BME280;8287;51.644;8.494;2022-08-11T13:48:49;100868.03;;;35.38;22.21
16355;BME280;8287;51.644;8.494;2022-08-11T13:51:18;100862.34;;;34.66;21.84
16355;BME280;8287;51.644;8.494;2022-08-11T13:54:00;100859.41;;;34.51;22.67
16355;BME280;8287;51.644;8.494;2022-08-11T13:56:28;100854.56;;;35.22;22.37
16355;BME280;8287;51.644;8.494;2022-08-11T13:58:55;100853.16;;;35.17;22.48
16355;BME280;8287;51.644;8.494;2022-08-11T14:01:26;100853.13;;;34.99;23.27
16355;BME280;8287;51.644;8.494;2022-08-11T14:03:54;100841.34;;;35.89;22.95
16355;BME280;8287;51.644;8.494;2022-08-11T14:06:23;100843.94;;;35.92;20.96
16355;BME280;8287;51.644;8.494;2022-08-11T14:08:51;100840.09;;;34.91;21.95
16355;BME280;8287;51.644;8.494;2022-08-11T14:11:19;100835.59;;;34.66;22.36
16355;BME280;8287;51.644;8.494;2022-08-11T14:14:05;100837.25;;;35.66;22.71
16355;BME280;8287;51.644;8.494;2022-08-11T14:16:39;100829.84;;;36.32;22.53
16355;BME280;8287;51.644;8.494;2022-08-11T14:19:08;100827.38;;;36.89;21.60
16355;BME280;8287;51.644;8.494;2022-08-11T14:21:41;100829.88;;;36.64;20.70
16355;BME280;8287;51.644;8.494;2022-08-11T14:24:26;100828.16;;;36.34;20.40
16355;BME280;8287;51.644;8.494;2022-08-11T14:26:54;100826.06;;;36.61;21.24
16355;BME280;8287;51.644;8.494;2022-08-11T14:29:22;100819.31;;;37.00;21.38
16355;BME280;8287;51.644;8.494;2022-08-11T14:31:53;100807.25;;;37.50;20.97
16355;BME280;8287;51.644;8.494;2022-08-11T14:34:22;100812.09;;;37.84;21.19
16355;BME280;8287;51.644;8.494;2022-08-11T14:36:54;100802.00;;;38.10;21.58
16355;BME280;8287;51.644;8.494;2022-08-11T14:39:22;100806.19;;;37.91;21.29